sensor_id;sensor_type;location;lat;lon;timestamp;P1;durP1;ratioP1;P2;durP2;ratioP2
71464;SDS011;59274;49.874;9.154;2024-02-21T00:01:49;19.50;;;6.23;;
71464;SDS011;59274;49.874;9.154;2024-02-21T00:04:15;17.90;;;6.07;;
71464;SDS011;59274;49.874;9.154;2024-02-21T00:06:41;16.33;;;6.45;;
71464;SDS011;59274;49.874;9.154;2024-02-21T00:09:06;19.63;;;4.70;;
71464;SDS011;59274;49.874;9.154;2024-02-21T00:11:32;17.17;;;5.17;;
71464;SDS011;59274;49.874;9.154;2024-02-21T00:13:57;16.08;;;5.85;;
71464;SDS011;59274;49.874;9.154;2024-02-21T00:16:22;13.27;;;5.28;;
71464;SDS011;59274;49.874;9.154;2024-02-21T00:18:48;14.93;;;5.60;;
71464;SDS011;59274;49.874;9.154;2024-02-21T00:21:14;18.52;;;5.93;;
71464;SDS011;59274;49.874;9.154;2024-02-21T00:23:43;16.63;;;5.55;;
71464;SDS011;59274;49.874;9.154;2024-02-21T00:26:11;13.23;;;5.28;;
71464;SDS011;59274;49.874;9.154;2024-02-21T00:28:37;19.00;;;5.50;;
71464;SDS011;59274;49.874;9.154;2024-02-21T00:31:03;22.70;;;5.83;;
71464;SDS011;59274;49.874;9.154;2024-02-21T00:33:28;16.40;;;4.93;;
71464;SDS011;59274;49.874;9.154;2024-02-21T00:35:54;13.55;;;5.10;;
71464;SDS011;59274;49.874;9.154;2024-02-21T00:38:19;15.00;;;5.53;;
71464;SDS011;59274;49.874;9.154;2024-02-21T00:40:45;17.23;;;5.95;;
71464;SDS011;59274;49.874;9.154;2024-02-21T00:43:11;15.43;;;5.73;;
71464;SDS011;59274;49.874;9.154;2024-02-21T00:45:36;17.10;;;5.70;;
71464;SDS011;59274;49.874;9.154;2024-02-21T00:48:02;16.83;;;5.73;;
71464;SDS011;59274;49.874;9.154;2024-02-21T00:50:27;14.75;;;4.82;;
71464;SDS011;59274;49.874;9.154;2024-02-21T00:52:53;12.20;;;4.73;;
71464;SDS011;59274;49.874;9.154;2024-02-21T00:55:18;16.40;;;4.70;;
71464;SDS011;59274;49.874;9.154;2024-02-21T00:57:43;14.90;;;5.70;;
71464;SDS011;59274;49.874;9.154;2024-02-21T01:00:09;14.60;;;5.00;;
71464;SDS011;59274;49.874;9.154;2024-02-21T01:02:35;13.18;;;5.22;;
71464;SDS011;59274;49.874;9.154;2024-02-21T01:05:01;16.52;;;5.45;;
71464;SDS011;59274;49.874;9.154;2024-02-21T01:07:27;14.90;;;5.77;;
71464;SDS011;59274;49.874;9.154;2024-02-21T01:09:52;16.08;;;5.68;;
71464;SDS011;59274;49.874;9.154;2024-02-21T01:12:18;15.03;;;5.73;;
71464;SDS011;59274;49.874;9.154;2024-02-21T01:14:44;13.67;;;5.30;;
71464;SDS011;59274;49.874;9.154;2024-02-21T01:17:11;21.02;;;5.82;;
71464;SDS011;59274;49.874;9.154;2024-02-21T01:19:37;16.23;;;6.13;;
71464;SDS011;59274;49.874;9.154;2024-02-21T01:22:03;15.48;;;6.35;;
71464;SDS011;59274;49.874;9.154;2024-02-21T01:24:29;15.02;;;5.07;;
71464;SDS011;59274;49.874;9.154;2024-02-21T01:26:55;13.55;;;5.47;;
71464;SDS011;59274;49.874;9.154;2024-02-21T01:29:20;16.33;;;5.03;;
71464;SDS011;59274;49.874;9.154;2024-02-21T01:31:46;16.37;;;5.47;;
71464;SDS011;59274;49.874;9.154;2024-02-21T01:34:12;17.70;;;5.75;;
71464;SDS011;59274;49.874;9.154;2024-02-21T01:36:38;19.20;;;5.40;;
71464;SDS011;59274;49.874;9.154;2024-02-21T01:39:03;21.00;;;5.60;;
71464;SDS011;59274;49.874;9.154;2024-02-21T01:41:31;14.27;;;5.07;;
71464;SDS011;59274;49.874;9.154;2024-02-21T01:43:57;16.80;;;5.90;;
71464;SDS011;59274;49.874;9.154;2024-02-21T01:46:23;13.10;;;4.80;;
71464;SDS011;59274;49.874;9.154;2024-02-21T01:48:53;14.97;;;4.83;;
71464;SDS011;59274;49.874;9.154;2024-02-21T01:51:19;17.02;;;5.47;;
71464;SDS011;59274;49.874;9.154;2024-02-21T01:53:44;18.73;;;5.40;;
71464;SDS011;59274;49.874;9.154;2024-02-21T01:56:11;14.77;;;4.63;;
71464;SDS011;59274;49.874;9.154;2024-02-21T01:58:38;13.68;;;4.85;;
71464;SDS011;59274;49.874;9.154;2024-02-21T02:01:06;11.45;;;4.85;;
71464;SDS011;59274;49.874;9.154;2024-02-21T02:03:32;9.80;;;4.60;;
71464;SDS011;59274;49.874;9.154;2024-02-21T02:05:57;15.80;;;4.87;;
71464;SDS011;59274;49.874;9.154;2024-02-21T02:08:22;18.50;;;5.10;;
71464;SDS011;59274;49.874;9.154;2024-02-21T02:10:48;12.68;;;4.70;;
71464;SDS011;59274;49.874;9.154;2024-02-21T02:13:14;15.63;;;5.70;;
71464;SDS011;59274;49.874;9.154;2024-02-21T02:18:12;18.70;;;5.20;;
71464;SDS011;59274;49.874;9.154;2024-02-21T02:20:38;17.35;;;5.43;;
71464;SDS011;59274;49.874;9.154;2024-02-21T02:23:46;14.70;;;5.55;;
71464;SDS011;59274;49.874;9.154;2024-02-21T02:25:56;22.05;;;5.70;;
71464;SDS011;59274;49.874;9.154;2024-02-21T02:28:22;15.07;;;5.20;;
71464;SDS011;59274;49.874;9.154;2024-02-21T02:30:48;15.70;;;4.93;;
71464;SDS011;59274;49.874;9.154;2024-02-21T02:33:14;16.25;;;4.93;;
71464;SDS011;59274;49.874;9.154;2024-02-21T02:35:39;12.87;;;4.10;;
71464;SDS011;59274;49.874;9.154;2024-02-21T02:38:05;13.23;;;4.57;;
71464;SDS011;59274;49.874;9.154;2024-02-21T02:40:31;10.25;;;4.13;;
71464;SDS011;59274;49.874;9.154;2024-02-21T02:42:58;18.27;;;4.70;;
71464;SDS011;59274;49.874;9.154;2024-02-21T02:45:24;12.30;;;4.47;;
71464;SDS011;59274;49.874;9.154;2024-02-21T02:47:51;16.15;;;4.15;;
71464;SDS011;59274;49.874;9.154;2024-02-21T02:50:19;16.13;;;4.30;;
71464;SDS011;59274;49.874;9.154;2024-02-21T02:52:45;13.27;;;4.38;;
71464;SDS011;59274;49.874;9.154;2024-02-21T02:55:10;15.63;;;4.50;;
71464;SDS011;59274;49.874;9.154;2024-02-21T02:57:36;13.80;;;3.92;;
71464;SDS011;59274;49.874;9.154;2024-02-21T03:00:03;13.38;;;3.95;;
71464;SDS011;59274;49.874;9.154;2024-02-21T03:02:29;14.20;;;4.07;;
71464;SDS011;59274;49.874;9.154;2024-02-21T03:04:56;14.37;;;4.03;;
71464;SDS011;59274;49.874;9.154;2024-02-21T03:07:22;15.50;;;4.95;;
71464;SDS011;59274;49.874;9.154;2024-02-21T03:09:49;13.13;;;4.15;;
71464;SDS011;59274;49.874;9.154;2024-02-21T03:12:15;11.67;;;3.90;;
71464;SDS011;59274;49.874;9.154;2024-02-21T03:14:49;14.55;;;4.38;;
71464;SDS011;59274;49.874;9.154;2024-02-21T03:17:18;14.00;;;4.27;;
71464;SDS011;59274;49.874;9.154;2024-02-21T03:19:43;10.38;;;3.75;;
71464;SDS011;59274;49.874;9.154;2024-02-21T03:22:09;15.20;;;4.50;;
71464;SDS011;59274;49.874;9.154;2024-02-21T03:24:34;12.60;;;4.23;;
71464;SDS011;59274;49.874;9.154;2024-02-21T03:26:59;13.93;;;4.60;;
71464;SDS011;59274;49.874;9.154;2024-02-21T03:29:25;13.23;;;4.72;;
71464;SDS011;59274;49.874;9.154;2024-02-21T03:31:51;11.87;;;5.03;;
71464;SDS011;59274;49.874;9.154;2024-02-21T03:34:20;15.68;;;5.72;;
71464;SDS011;59274;49.874;9.154;2024-02-21T03:36:45;13.73;;;5.33;;
71464;SDS011;59274;49.874;9.154;2024-02-21T03:39:10;16.60;;;5.43;;
71464;SDS011;59274;49.874;9.154;2024-02-21T03:41:36;16.52;;;6.10;;
71464;SDS011;59274;49.874;9.154;2024-02-21T03:44:02;15.07;;;5.50;;
71464;SDS011;59274;49.874;9.154;2024-02-21T03:46:27;15.13;;;4.43;;
71464;SDS011;59274;49.874;9.154;2024-02-21T03:48:53;14.63;;;4.55;;
71464;SDS011;59274;49.874;9.154;2024-02-21T03:51:19;13.53;;;4.60;;
71464;SDS011;59274;49.874;9.154;2024-02-21T03:53:47;16.60;;;5.00;;
71464;SDS011;59274;49.874;9.154;2024-02-21T03:56:13;14.07;;;4.63;;
71464;SDS011;59274;49.874;9.154;2024-02-21T03:58:38;18.77;;;4.53;;
71464;SDS011;59274;49.874;9.154;2024-02-21T04:01:04;14.33;;;4.90;;
71464;SDS011;59274;49.874;9.154;2024-02-21T04:03:30;15.53;;;4.90;;
71464;SDS011;59274;49.874;9.154;2024-02-21T04:05:55;11.32;;;4.68;;
71464;SDS011;59274;49.874;9.154;2024-02-21T04:08:22;16.05;;;4.57;;
71464;SDS011;59274;49.874;9.154;2024-02-21T04:10:51;16.50;;;4.80;;
71464;SDS011;59274;49.874;9.154;2024-02-21T04:13:17;14.80;;;5.20;;
71464;SDS011;59274;49.874;9.154;2024-02-21T04:15:42;15.02;;;4.63;;
71464;SDS011;59274;49.874;9.154;2024-02-21T04:18:08;15.90;;;5.30;;
71464;SDS011;59274;49.874;9.154;2024-02-21T04:20:34;18.77;;;5.57;;
71464;SDS011;59274;49.874;9.154;2024-02-21T04:23:00;19.37;;;5.47;;
71464;SDS011;59274;49.874;9.154;2024-02-21T04:25:26;16.33;;;5.05;;
71464;SDS011;59274;49.874;9.154;2024-02-21T04:27:52;12.48;;;5.28;;
71464;SDS011;59274;49.874;9.154;2024-02-21T04:30:18;13.00;;;5.80;;
71464;SDS011;59274;49.874;9.154;2024-02-21T04:32:44;18.48;;;5.45;;
71464;SDS011;59274;49.874;9.154;2024-02-21T04:35:10;15.30;;;6.05;;
71464;SDS011;59274;49.874;9.154;2024-02-21T04:37:35;19.53;;;5.80;;
71464;SDS011;59274;49.874;9.154;2024-02-21T04:40:04;17.23;;;5.65;;
71464;SDS011;59274;49.874;9.154;2024-02-21T04:42:34;14.67;;;5.13;;
71464;SDS011;59274;49.874;9.154;2024-02-21T04:45:00;15.23;;;5.22;;
71464;SDS011;59274;49.874;9.154;2024-02-21T04:47:27;13.27;;;5.60;;
71464;SDS011;59274;49.874;9.154;2024-02-21T04:49:53;15.95;;;5.78;;
71464;SDS011;59274;49.874;9.154;2024-02-21T04:52:22;16.33;;;6.03;;
71464;SDS011;59274;49.874;9.154;2024-02-21T04:54:47;15.10;;;5.47;;
71464;SDS011;59274;49.874;9.154;2024-02-21T04:57:13;14.43;;;5.17;;
71464;SDS011;59274;49.874;9.154;2024-02-21T04:59:42;14.30;;;5.78;;
71464;SDS011;59274;49.874;9.154;2024-02-21T05:02:12;15.20;;;5.53;;
71464;SDS011;59274;49.874;9.154;2024-02-21T05:04:38;15.23;;;5.60;;
71464;SDS011;59274;49.874;9.154;2024-02-21T05:07:04;16.45;;;6.60;;
71464;SDS011;59274;49.874;9.154;2024-02-21T05:09:30;18.08;;;6.75;;
71464;SDS011;59274;49.874;9.154;2024-02-21T05:11:55;20.37;;;6.60;;
71464;SDS011;59274;49.874;9.154;2024-02-21T05:14:21;18.00;;;6.63;;
71464;SDS011;59274;49.874;9.154;2024-02-21T05:16:46;19.30;;;7.07;;
71464;SDS011;59274;49.874;9.154;2024-02-21T05:19:12;18.85;;;6.97;;
71464;SDS011;59274;49.874;9.154;2024-02-21T05:21:37;16.53;;;7.10;;
71464;SDS011;59274;49.874;9.154;2024-02-21T05:24:03;21.43;;;7.10;;
71464;SDS011;59274;49.874;9.154;2024-02-21T05:26:28;22.75;;;8.50;;
71464;SDS011;59274;49.874;9.154;2024-02-21T05:28:54;18.27;;;7.33;;
71464;SDS011;59274;49.874;9.154;2024-02-21T05:31:19;18.00;;;7.20;;
71464;SDS011;59274;49.874;9.154;2024-02-21T05:33:46;17.05;;;7.28;;
71464;SDS011;59274;49.874;9.154;2024-02-21T05:36:12;18.85;;;7.57;;
71464;SDS011;59274;49.874;9.154;2024-02-21T05:38:38;27.73;;;10.00;;
71464;SDS011;59274;49.874;9.154;2024-02-21T05:41:04;20.92;;;9.40;;
71464;SDS011;59274;49.874;9.154;2024-02-21T05:43:33;30.27;;;10.30;;
71464;SDS011;59274;49.874;9.154;2024-02-21T05:45:58;25.37;;;9.30;;
71464;SDS011;59274;49.874;9.154;2024-02-21T05:48:24;26.77;;;9.60;;
71464;SDS011;59274;49.874;9.154;2024-02-21T05:50:49;23.80;;;8.48;;
71464;SDS011;59274;49.874;9.154;2024-02-21T05:53:15;21.20;;;8.93;;
71464;SDS011;59274;49.874;9.154;2024-02-21T05:55:41;19.90;;;7.47;;
71464;SDS011;59274;49.874;9.154;2024-02-21T05:58:06;23.90;;;9.30;;
71464;SDS011;59274;49.874;9.154;2024-02-21T06:00:32;18.52;;;8.18;;
71464;SDS011;59274;49.874;9.154;2024-02-21T06:02:58;22.37;;;7.47;;
71464;SDS011;59274;49.874;9.154;2024-02-21T06:05:24;15.93;;;7.25;;
71464;SDS011;59274;49.874;9.154;2024-02-21T06:07:50;18.42;;;6.47;;
71464;SDS011;59274;49.874;9.154;2024-02-21T06:10:15;17.23;;;6.60;;
71464;SDS011;59274;49.874;9.154;2024-02-21T06:12:41;20.17;;;6.77;;
71464;SDS011;59274;49.874;9.154;2024-02-21T06:15:06;14.25;;;5.40;;
71464;SDS011;59274;49.874;9.154;2024-02-21T06:17:32;14.47;;;5.87;;
71464;SDS011;59274;49.874;9.154;2024-02-21T06:19:58;12.97;;;4.70;;
71464;SDS011;59274;49.874;9.154;2024-02-21T06:22:23;13.00;;;4.63;;
71464;SDS011;59274;49.874;9.154;2024-02-21T06:24:48;11.70;;;4.40;;
71464;SDS011;59274;49.874;9.154;2024-02-21T06:27:15;13.33;;;4.97;;
71464;SDS011;59274;49.874;9.154;2024-02-21T06:29:41;16.88;;;4.95;;
71464;SDS011;59274;49.874;9.154;2024-02-21T06:32:07;15.67;;;5.73;;
71464;SDS011;59274;49.874;9.154;2024-02-21T06:34:32;14.07;;;6.13;;
71464;SDS011;59274;49.874;9.154;2024-02-21T06:36:58;15.40;;;5.60;;
71464;SDS011;59274;49.874;9.154;2024-02-21T06:39:23;16.37;;;5.87;;
71464;SDS011;59274;49.874;9.154;2024-02-21T06:41:49;15.77;;;5.55;;
71464;SDS011;59274;49.874;9.154;2024-02-21T06:44:19;14.65;;;6.10;;
71464;SDS011;59274;49.874;9.154;2024-02-21T06:46:44;22.77;;;7.10;;
71464;SDS011;59274;49.874;9.154;2024-02-21T06:49:10;16.40;;;6.43;;
71464;SDS011;59274;49.874;9.154;2024-02-21T06:51:44;14.95;;;6.78;;
71464;SDS011;59274;49.874;9.154;2024-02-21T06:54:12;14.55;;;5.70;;
71464;SDS011;59274;49.874;9.154;2024-02-21T06:56:38;18.97;;;5.97;;
71464;SDS011;59274;49.874;9.154;2024-02-21T06:59:05;15.63;;;6.18;;
71464;SDS011;59274;49.874;9.154;2024-02-21T07:01:30;20.03;;;7.70;;
71464;SDS011;59274;49.874;9.154;2024-02-21T07:03:56;19.02;;;7.65;;
71464;SDS011;59274;49.874;9.154;2024-02-21T07:06:22;19.53;;;7.77;;
71464;SDS011;59274;49.874;9.154;2024-02-21T07:08:47;18.88;;;8.38;;
71464;SDS011;59274;49.874;9.154;2024-02-21T07:11:13;15.00;;;7.33;;
71464;SDS011;59274;49.874;9.154;2024-02-21T07:13:38;17.73;;;7.50;;
71464;SDS011;59274;49.874;9.154;2024-02-21T07:16:04;20.37;;;8.93;;
71464;SDS011;59274;49.874;9.154;2024-02-21T07:18:30;25.33;;;11.18;;
71464;SDS011;59274;49.874;9.154;2024-02-21T07:20:55;32.33;;;13.68;;
71464;SDS011;59274;49.874;9.154;2024-02-21T07:23:21;30.48;;;13.80;;
71464;SDS011;59274;49.874;9.154;2024-02-21T07:25:50;29.23;;;12.30;;
71464;SDS011;59274;49.874;9.154;2024-02-21T07:28:16;24.42;;;11.18;;
71464;SDS011;59274;49.874;9.154;2024-02-21T07:30:45;21.75;;;8.73;;
71464;SDS011;59274;49.874;9.154;2024-02-21T07:33:10;18.05;;;7.80;;
71464;SDS011;59274;49.874;9.154;2024-02-21T07:35:36;16.27;;;6.57;;
71464;SDS011;59274;49.874;9.154;2024-02-21T07:38:03;18.58;;;6.22;;
71464;SDS011;59274;49.874;9.154;2024-02-21T07:40:30;18.37;;;6.27;;
71464;SDS011;59274;49.874;9.154;2024-02-21T07:42:55;19.40;;;6.00;;
71464;SDS011;59274;49.874;9.154;2024-02-21T07:45:20;13.80;;;5.27;;
71464;SDS011;59274;49.874;9.154;2024-02-21T07:47:48;17.85;;;4.88;;
71464;SDS011;59274;49.874;9.154;2024-02-21T07:50:14;13.53;;;5.23;;
71464;SDS011;59274;49.874;9.154;2024-02-21T07:52:40;14.40;;;5.60;;
71464;SDS011;59274;49.874;9.154;2024-02-21T07:55:05;21.03;;;6.60;;
71464;SDS011;59274;49.874;9.154;2024-02-21T07:57:31;21.87;;;8.37;;
71464;SDS011;59274;49.874;9.154;2024-02-21T07:59:56;21.35;;;8.95;;
71464;SDS011;59274;49.874;9.154;2024-02-21T08:02:22;24.63;;;9.55;;
71464;SDS011;59274;49.874;9.154;2024-02-21T08:04:47;19.57;;;8.23;;
71464;SDS011;59274;49.874;9.154;2024-02-21T08:07:13;23.73;;;7.83;;
71464;SDS011;59274;49.874;9.154;2024-02-21T08:09:39;21.63;;;7.43;;
71464;SDS011;59274;49.874;9.154;2024-02-21T08:12:05;23.13;;;8.40;;
71464;SDS011;59274;49.874;9.154;2024-02-21T08:14:31;19.17;;;6.70;;
71464;SDS011;59274;49.874;9.154;2024-02-21T08:16:56;16.40;;;6.93;;
71464;SDS011;59274;49.874;9.154;2024-02-21T08:19:21;16.13;;;6.72;;
71464;SDS011;59274;49.874;9.154;2024-02-21T08:21:50;15.60;;;6.53;;
71464;SDS011;59274;49.874;9.154;2024-02-21T08:24:15;18.23;;;6.00;;
71464;SDS011;59274;49.874;9.154;2024-02-21T08:26:41;14.97;;;5.70;;
71464;SDS011;59274;49.874;9.154;2024-02-21T08:29:07;13.60;;;5.35;;
71464;SDS011;59274;49.874;9.154;2024-02-21T08:31:32;14.43;;;5.77;;
71464;SDS011;59274;49.874;9.154;2024-02-21T08:33:59;17.50;;;5.90;;
71464;SDS011;59274;49.874;9.154;2024-02-21T08:36:28;16.85;;;5.45;;
71464;SDS011;59274;49.874;9.154;2024-02-21T08:38:57;19.08;;;5.60;;
71464;SDS011;59274;49.874;9.154;2024-02-21T08:41:24;14.87;;;5.27;;
71464;SDS011;59274;49.874;9.154;2024-02-21T08:43:52;14.82;;;5.43;;
71464;SDS011;59274;49.874;9.154;2024-02-21T08:46:19;12.27;;;4.90;;
71464;SDS011;59274;49.874;9.154;2024-02-21T08:48:45;15.02;;;5.18;;
71464;SDS011;59274;49.874;9.154;2024-02-21T08:51:11;10.47;;;4.80;;
71464;SDS011;59274;49.874;9.154;2024-02-21T08:53:37;12.27;;;5.30;;
71464;SDS011;59274;49.874;9.154;2024-02-21T08:56:03;13.60;;;4.93;;
71464;SDS011;59274;49.874;9.154;2024-02-21T08:58:29;12.18;;;4.45;;
71464;SDS011;59274;49.874;9.154;2024-02-21T09:00:55;16.98;;;5.30;;
71464;SDS011;59274;49.874;9.154;2024-02-21T09:03:21;12.82;;;4.45;;
71464;SDS011;59274;49.874;9.154;2024-02-21T09:05:47;10.57;;;3.83;;
71464;SDS011;59274;49.874;9.154;2024-02-21T09:08:12;13.13;;;4.10;;
71464;SDS011;59274;49.874;9.154;2024-02-21T09:10:39;12.70;;;4.13;;
71464;SDS011;59274;49.874;9.154;2024-02-21T09:13:05;10.45;;;3.95;;
71464;SDS011;59274;49.874;9.154;2024-02-21T09:15:32;12.57;;;4.30;;
71464;SDS011;59274;49.874;9.154;2024-02-21T09:17:58;12.33;;;4.23;;
71464;SDS011;59274;49.874;9.154;2024-02-21T09:20:23;8.77;;;3.00;;
71464;SDS011;59274;49.874;9.154;2024-02-21T09:22:49;13.67;;;3.47;;
71464;SDS011;59274;49.874;9.154;2024-02-21T09:25:18;12.13;;;3.33;;
71464;SDS011;59274;49.874;9.154;2024-02-21T09:27:44;7.63;;;3.20;;
71464;SDS011;59274;49.874;9.154;2024-02-21T09:30:10;11.32;;;3.53;;
71464;SDS011;59274;49.874;9.154;2024-02-21T09:32:36;10.95;;;2.88;;
71464;SDS011;59274;49.874;9.154;2024-02-21T09:35:03;10.20;;;3.15;;
71464;SDS011;59274;49.874;9.154;2024-02-21T09:37:30;7.82;;;3.10;;
71464;SDS011;59274;49.874;9.154;2024-02-21T09:39:56;11.43;;;2.90;;
71464;SDS011;59274;49.874;9.154;2024-02-21T09:42:22;7.53;;;2.65;;
71464;SDS011;59274;49.874;9.154;2024-02-21T09:44:58;9.57;;;3.00;;
71464;SDS011;59274;49.874;9.154;2024-02-21T09:47:34;7.13;;;2.42;;
71464;SDS011;59274;49.874;9.154;2024-02-21T09:50:09;10.05;;;3.05;;
71464;SDS011;59274;49.874;9.154;2024-02-21T09:52:35;11.80;;;2.40;;
71464;SDS011;59274;49.874;9.154;2024-02-21T09:55:02;12.20;;;3.28;;
71464;SDS011;59274;49.874;9.154;2024-02-21T09:57:30;9.00;;;2.53;;
71464;SDS011;59274;49.874;9.154;2024-02-21T09:59:57;10.02;;;2.60;;
71464;SDS011;59274;49.874;9.154;2024-02-21T10:02:24;9.38;;;2.80;;
71464;SDS011;59274;49.874;9.154;2024-02-21T10:04:49;10.27;;;2.40;;
71464;SDS011;59274;49.874;9.154;2024-02-21T10:07:15;9.83;;;2.80;;
71464;SDS011;59274;49.874;9.154;2024-02-21T10:09:40;8.07;;;2.53;;
71464;SDS011;59274;49.874;9.154;2024-02-21T10:12:07;11.93;;;2.45;;
71464;SDS011;59274;49.874;9.154;2024-02-21T10:14:37;8.82;;;2.67;;
71464;SDS011;59274;49.874;9.154;2024-02-21T10:17:03;7.78;;;2.55;;
71464;SDS011;59274;49.874;9.154;2024-02-21T10:19:34;7.72;;;1.90;;
71464;SDS011;59274;49.874;9.154;2024-02-21T10:22:09;9.40;;;2.87;;
71464;SDS011;59274;49.874;9.154;2024-02-21T10:24:36;10.77;;;2.38;;
71464;SDS011;59274;49.874;9.154;2024-02-21T10:27:08;8.73;;;2.20;;
71464;SDS011;59274;49.874;9.154;2024-02-21T10:29:35;10.75;;;2.40;;
71464;SDS011;59274;49.874;9.154;2024-02-21T10:32:05;9.33;;;2.63;;
71464;SDS011;59274;49.874;9.154;2024-02-21T10:34:32;11.55;;;3.33;;
71464;SDS011;59274;49.874;9.154;2024-02-21T10:37:01;9.25;;;2.85;;
71464;SDS011;59274;49.874;9.154;2024-02-21T10:39:33;8.30;;;2.43;;
71464;SDS011;59274;49.874;9.154;2024-02-21T10:42:01;7.05;;;2.10;;
71464;SDS011;59274;49.874;9.154;2024-02-21T10:44:34;7.57;;;2.25;;
71464;SDS011;59274;49.874;9.154;2024-02-21T10:47:04;8.20;;;2.10;;
71464;SDS011;59274;49.874;9.154;2024-02-21T10:49:33;8.10;;;2.40;;
71464;SDS011;59274;49.874;9.154;2024-02-21T10:52:14;6.13;;;2.30;;
71464;SDS011;59274;49.874;9.154;2024-02-21T10:54:53;9.90;;;2.45;;
71464;SDS011;59274;49.874;9.154;2024-02-21T10:57:21;10.30;;;2.60;;
71464;SDS011;59274;49.874;9.154;2024-02-21T10:59:48;8.57;;;2.33;;
71464;SDS011;59274;49.874;9.154;2024-02-21T11:02:14;8.52;;;2.30;;
71464;SDS011;59274;49.874;9.154;2024-02-21T11:04:40;10.03;;;2.37;;
71464;SDS011;59274;49.874;9.154;2024-02-21T11:07:07;9.30;;;2.53;;
71464;SDS011;59274;49.874;9.154;2024-02-21T11:09:33;10.75;;;2.10;;
71464;SDS011;59274;49.874;9.154;2024-02-21T11:12:03;10.55;;;3.25;;
71464;SDS011;59274;49.874;9.154;2024-02-21T11:14:30;6.53;;;2.70;;
71464;SDS011;59274;49.874;9.154;2024-02-21T11:17:02;12.30;;;2.55;;
71464;SDS011;59274;49.874;9.154;2024-02-21T11:19:29;12.10;;;3.33;;
71464;SDS011;59274;49.874;9.154;2024-02-21T11:21:57;8.18;;;2.47;;
71464;SDS011;59274;49.874;9.154;2024-02-21T11:24:27;8.73;;;2.40;;
71464;SDS011;59274;49.874;9.154;2024-02-21T11:27:08;7.37;;;2.13;;
71464;SDS011;59274;49.874;9.154;2024-02-21T11:29:39;8.40;;;2.33;;
71464;SDS011;59274;49.874;9.154;2024-02-21T11:32:08;8.20;;;2.53;;
71464;SDS011;59274;49.874;9.154;2024-02-21T11:34:35;8.20;;;2.45;;
71464;SDS011;59274;49.874;9.154;2024-02-21T11:37:00;10.73;;;2.57;;
71464;SDS011;59274;49.874;9.154;2024-02-21T11:39:26;8.80;;;2.60;;
71464;SDS011;59274;49.874;9.154;2024-02-21T11:42:04;8.10;;;2.35;;
71464;SDS011;59274;49.874;9.154;2024-02-21T11:44:33;7.18;;;2.10;;
71464;SDS011;59274;49.874;9.154;2024-02-21T11:46:59;8.88;;;2.75;;
71464;SDS011;59274;49.874;9.154;2024-02-21T11:49:25;7.13;;;2.70;;
71464;SDS011;59274;49.874;9.154;2024-02-21T11:52:01;8.25;;;2.40;;
71464;SDS011;59274;49.874;9.154;2024-02-21T11:54:29;7.80;;;2.37;;
71464;SDS011;59274;49.874;9.154;2024-02-21T11:56:55;11.35;;;2.90;;
71464;SDS011;59274;49.874;9.154;2024-02-21T11:59:21;9.50;;;2.70;;
71464;SDS011;59274;49.874;9.154;2024-02-21T12:01:47;8.43;;;2.50;;
71464;SDS011;59274;49.874;9.154;2024-02-21T12:04:13;7.22;;;2.03;;
71464;SDS011;59274;49.874;9.154;2024-02-21T12:06:39;8.30;;;2.40;;
71464;SDS011;59274;49.874;9.154;2024-02-21T12:09:07;8.70;;;2.70;;
71464;SDS011;59274;49.874;9.154;2024-02-21T12:11:39;8.93;;;2.30;;
71464;SDS011;59274;49.874;9.154;2024-02-21T12:14:05;10.63;;;2.55;;
71464;SDS011;59274;49.874;9.154;2024-02-21T12:16:31;8.75;;;2.33;;
71464;SDS011;59274;49.874;9.154;2024-02-21T12:18:58;8.13;;;2.60;;
71464;SDS011;59274;49.874;9.154;2024-02-21T12:21:29;5.50;;;2.50;;
71464;SDS011;59274;49.874;9.154;2024-02-21T12:23:55;9.30;;;2.40;;
71464;SDS011;59274;49.874;9.154;2024-02-21T12:26:21;9.40;;;2.37;;
71464;SDS011;59274;49.874;9.154;2024-02-21T12:28:47;9.63;;;2.60;;
71464;SDS011;59274;49.874;9.154;2024-02-21T12:31:13;10.70;;;2.60;;
71464;SDS011;59274;49.874;9.154;2024-02-21T12:33:38;4.65;;;2.25;;
71464;SDS011;59274;49.874;9.154;2024-02-21T12:36:04;10.63;;;2.83;;
71464;SDS011;59274;49.874;9.154;2024-02-21T12:38:30;7.03;;;2.10;;
71464;SDS011;59274;49.874;9.154;2024-02-21T12:40:55;11.87;;;2.47;;
71464;SDS011;59274;49.874;9.154;2024-02-21T12:43:25;6.88;;;2.15;;
71464;SDS011;59274;49.874;9.154;2024-02-21T12:45:51;13.10;;;4.30;;
71464;SDS011;59274;49.874;9.154;2024-02-21T12:48:16;8.20;;;2.70;;
71464;SDS011;59274;49.874;9.154;2024-02-21T12:50:47;10.40;;;2.20;;
71464;SDS011;59274;49.874;9.154;2024-02-21T12:53:16;6.90;;;2.10;;
71464;SDS011;59274;49.874;9.154;2024-02-21T12:55:44;6.83;;;2.07;;
71464;SDS011;59274;49.874;9.154;2024-02-21T12:58:10;9.23;;;2.28;;
71464;SDS011;59274;49.874;9.154;2024-02-21T13:00:36;7.27;;;2.37;;
71464;SDS011;59274;49.874;9.154;2024-02-21T13:03:03;8.43;;;2.53;;
71464;SDS011;59274;49.874;9.154;2024-02-21T13:05:28;7.43;;;2.20;;
71464;SDS011;59274;49.874;9.154;2024-02-21T13:07:54;10.07;;;2.30;;
71464;SDS011;59274;49.874;9.154;2024-02-21T13:10:19;8.27;;;2.50;;
71464;SDS011;59274;49.874;9.154;2024-02-21T13:12:45;10.27;;;2.25;;
71464;SDS011;59274;49.874;9.154;2024-02-21T13:15:10;7.40;;;2.40;;
71464;SDS011;59274;49.874;9.154;2024-02-21T13:17:37;11.77;;;3.08;;
71464;SDS011;59274;49.874;9.154;2024-02-21T13:20:03;9.13;;;2.17;;
71464;SDS011;59274;49.874;9.154;2024-02-21T13:22:28;7.60;;;2.03;;
71464;SDS011;59274;49.874;9.154;2024-02-21T13:24:54;6.83;;;1.90;;
71464;SDS011;59274;49.874;9.154;2024-02-21T13:27:19;6.95;;;2.28;;
71464;SDS011;59274;49.874;9.154;2024-02-21T13:29:45;5.95;;;2.15;;
71464;SDS011;59274;49.874;9.154;2024-02-21T13:32:10;8.30;;;2.10;;
71464;SDS011;59274;49.874;9.154;2024-02-21T13:34:36;6.10;;;1.80;;
71464;SDS011;59274;49.874;9.154;2024-02-21T13:37:01;7.50;;;1.93;;
71464;SDS011;59274;49.874;9.154;2024-02-21T13:39:27;8.43;;;2.25;;
71464;SDS011;59274;49.874;9.154;2024-02-21T13:41:52;10.80;;;2.50;;
71464;SDS011;59274;49.874;9.154;2024-02-21T13:44:18;6.85;;;1.77;;
71464;SDS011;59274;49.874;9.154;2024-02-21T13:46:44;7.10;;;1.93;;
71464;SDS011;59274;49.874;9.154;2024-02-21T13:49:09;7.80;;;1.90;;
71464;SDS011;59274;49.874;9.154;2024-02-21T13:51:35;9.73;;;2.30;;
71464;SDS011;59274;49.874;9.154;2024-02-21T13:54:03;6.53;;;2.00;;
71464;SDS011;59274;49.874;9.154;2024-02-21T13:56:30;5.87;;;2.10;;
71464;SDS011;59274;49.874;9.154;2024-02-21T13:58:57;12.68;;;2.13;;
71464;SDS011;59274;49.874;9.154;2024-02-21T14:01:24;9.63;;;2.40;;
71464;SDS011;59274;49.874;9.154;2024-02-21T14:03:50;8.57;;;2.00;;
71464;SDS011;59274;49.874;9.154;2024-02-21T14:06:16;7.90;;;1.90;;
71464;SDS011;59274;49.874;9.154;2024-02-21T14:08:42;7.97;;;1.90;;
71464;SDS011;59274;49.874;9.154;2024-02-21T14:11:08;10.57;;;1.70;;
71464;SDS011;59274;49.874;9.154;2024-02-21T14:13:33;9.20;;;1.90;;
71464;SDS011;59274;49.874;9.154;2024-02-21T14:15:58;6.50;;;2.10;;
71464;SDS011;59274;49.874;9.154;2024-02-21T14:18:24;6.70;;;1.95;;
71464;SDS011;59274;49.874;9.154;2024-02-21T14:20:50;8.07;;;2.27;;
71464;SDS011;59274;49.874;9.154;2024-02-21T14:23:18;6.18;;;2.13;;
71464;SDS011;59274;49.874;9.154;2024-02-21T14:25:44;5.97;;;1.97;;
71464;SDS011;59274;49.874;9.154;2024-02-21T14:28:12;7.20;;;1.90;;
71464;SDS011;59274;49.874;9.154;2024-02-21T14:30:37;7.97;;;1.97;;
71464;SDS011;59274;49.874;9.154;2024-02-21T14:33:03;7.55;;;2.25;;
71464;SDS011;59274;49.874;9.154;2024-02-21T14:35:29;7.70;;;2.10;;
71464;SDS011;59274;49.874;9.154;2024-02-21T14:37:54;6.23;;;2.00;;